sensor_id;sensor_type;location;lat;lon;timestamp;P1;durP1;ratioP1;P2;durP2;ratioP2
35847;SDS011;22332;51.954;20.118;2022-11-20T00:02:21;45.30;;;22.70;;
35847;SDS011;22332;51.954;20.118;2022-11-20T00:05:23;46.00;;;23.50;;
35847;SDS011;22332;51.954;20.118;2022-11-20T00:08:26;45.50;;;22.60;;
35847;SDS011;22332;51.954;20.118;2022-11-20T00:11:30;50.70;;;23.80;;
35847;SDS011;22332;51.954;20.118;2022-11-20T00:14:33;52.00;;;25.00;;
35847;SDS011;22332;51.954;20.118;2022-11-20T00:17:36;48.90;;;24.70;;
35847;SDS011;22332;51.954;20.118;2022-11-20T00:20:38;48.60;;;24.10;;
35847;SDS011;22332;51.954;20.118;2022-11-20T00:23:41;44.80;;;22.50;;
35847;SDS011;22332;51.954;20.118;2022-11-20T00:26:44;47.60;;;23.60;;
35847;SDS011;22332;51.954;20.118;2022-11-20T00:29:47;47.70;;;24.70;;
35847;SDS011;22332;51.954;20.118;2022-11-20T00:32:49;45.60;;;23.90;;
35847;SDS011;22332;51.954;20.118;2022-11-20T00:35:52;43.70;;;22.80;;
35847;SDS011;22332;51.954;20.118;2022-11-20T00:38:55;44.10;;;23.10;;
35847;SDS011;22332;51.954;20.118;2022-11-20T00:41:59;50.00;;;24.90;;
35847;SDS011;22332;51.954;20.118;2022-11-20T00:45:02;48.80;;;23.10;;
35847;SDS011;22332;51.954;20.118;2022-11-20T00:48:06;49.60;;;24.20;;
35847;SDS011;22332;51.954;20.118;2022-11-20T00:51:09;51.10;;;24.00;;
35847;SDS011;22332;51.954;20.118;2022-11-20T00:54:12;46.70;;;23.00;;
35847;SDS011;22332;51.954;20.118;2022-11-20T00:57:15;45.10;;;23.60;;
35847;SDS011;22332;51.954;20.118;2022-11-20T01:00:18;49.40;;;24.30;;
35847;SDS011;22332;51.954;20.118;2022-11-20T01:03:20;49.10;;;24.30;;
35847;SDS011;22332;51.954;20.118;2022-11-20T01:06:23;45.30;;;23.50;;
35847;SDS011;22332;51.954;20.118;2022-11-20T01:09:28;45.70;;;23.30;;
35847;SDS011;22332;51.954;20.118;2022-11-20T01:12:34;49.80;;;24.40;;
35847;SDS011;22332;51.954;20.118;2022-11-20T01:15:36;47.60;;;23.50;;
35847;SDS011;22332;51.954;20.118;2022-11-20T01:18:39;48.10;;;23.60;;
35847;SDS011;22332;51.954;20.118;2022-11-20T01:21:44;48.80;;;23.90;;
35847;SDS011;22332;51.954;20.118;2022-11-20T01:24:49;47.90;;;24.80;;
35847;SDS011;22332;51.954;20.118;2022-11-20T01:27:52;46.40;;;24.20;;
35847;SDS011;22332;51.954;20.118;2022-11-20T01:30:54;49.30;;;24.40;;
35847;SDS011;22332;51.954;20.118;2022-11-20T01:33:58;46.50;;;23.40;;
35847;SDS011;22332;51.954;20.118;2022-11-20T01:37:03;52.80;;;24.80;;
35847;SDS011;22332;51.954;20.118;2022-11-20T01:40:06;50.00;;;24.40;;
35847;SDS011;22332;51.954;20.118;2022-11-20T01:43:12;51.10;;;25.50;;
35847;SDS011;22332;51.954;20.118;2022-11-20T01:46:24;48.00;;;23.90;;
35847;SDS011;22332;51.954;20.118;2022-11-20T01:49:28;49.10;;;23.40;;
35847;SDS011;22332;51.954;20.118;2022-11-20T01:52:39;50.10;;;22.60;;
35847;SDS011;22332;51.954;20.118;2022-11-20T01:55:48;53.70;;;24.90;;
35847;SDS011;22332;51.954;20.118;2022-11-20T01:58:54;56.10;;;25.20;;
35847;SDS011;22332;51.954;20.118;2022-11-20T02:02:00;52.20;;;24.60;;
35847;SDS011;22332;51.954;20.118;2022-11-20T02:05:04;49.40;;;24.00;;
35847;SDS011;22332;51.954;20.118;2022-11-20T02:08:16;50.50;;;24.90;;
35847;SDS011;22332;51.954;20.118;2022-11-20T02:11:21;49.80;;;24.10;;
35847;SDS011;22332;51.954;20.118;2022-11-20T02:14:23;50.50;;;23.50;;
35847;SDS011;22332;51.954;20.118;2022-11-20T02:17:27;47.90;;;24.30;;
35847;SDS011;22332;51.954;20.118;2022-11-20T02:20:31;50.20;;;23.70;;
35847;SDS011;22332;51.954;20.118;2022-11-20T02:23:36;52.50;;;24.50;;
35847;SDS011;22332;51.954;20.118;2022-11-20T02:26:42;52.30;;;24.00;;
35847;SDS011;22332;51.954;20.118;2022-11-20T02:29:50;52.60;;;24.60;;
35847;SDS011;22332;51.954;20.118;2022-11-20T02:32:55;51.40;;;25.00;;
35847;SDS011;22332;51.954;20.118;2022-11-20T02:35:59;54.40;;;23.90;;
35847;SDS011;22332;51.954;20.118;2022-11-20T02:39:02;51.40;;;24.30;;
35847;SDS011;22332;51.954;20.118;2022-11-20T02:42:05;56.60;;;25.40;;
35847;SDS011;22332;51.954;20.118;2022-11-20T02:45:08;53.70;;;26.10;;
35847;SDS011;22332;51.954;20.118;2022-11-20T02:48:11;55.80;;;25.40;;
35847;SDS011;22332;51.954;20.118;2022-11-20T02:51:14;56.00;;;26.70;;
35847;SDS011;22332;51.954;20.118;2022-11-20T02:54:16;54.40;;;26.00;;
35847;SDS011;22332;51.954;20.118;2022-11-20T02:57:19;56.40;;;26.50;;
35847;SDS011;22332;51.954;20.118;2022-11-20T03:00:22;54.60;;;26.20;;
35847;SDS011;22332;51.954;20.118;2022-11-20T03:03:25;56.40;;;26.70;;
35847;SDS011;22332;51.954;20.118;2022-11-20T03:06:27;56.70;;;27.10;;
35847;SDS011;22332;51.954;20.118;2022-11-20T03:09:30;60.20;;;27.40;;
35847;SDS011;22332;51.954;20.118;2022-11-20T03:12:33;56.60;;;26.10;;
35847;SDS011;22332;51.954;20.118;2022-11-20T03:15:36;53.70;;;25.50;;
35847;SDS011;22332;51.954;20.118;2022-11-20T03:18:38;56.90;;;25.50;;
35847;SDS011;22332;51.954;20.118;2022-11-20T03:21:41;58.70;;;26.90;;
35847;SDS011;22332;51.954;20.118;2022-11-20T03:24:44;53.70;;;25.70;;
35847;SDS011;22332;51.954;20.118;2022-11-20T03:27:47;58.40;;;27.10;;
35847;SDS011;22332;51.954;20.118;2022-11-20T03:30:49;60.20;;;27.00;;
35847;SDS011;22332;51.954;20.118;2022-11-20T03:33:52;59.90;;;27.00;;
35847;SDS011;22332;51.954;20.118;2022-11-20T03:36:55;57.60;;;27.00;;
35847;SDS011;22332;51.954;20.118;2022-11-20T03:39:58;54.10;;;24.90;;
35847;SDS011;22332;51.954;20.118;2022-11-20T03:43:00;54.60;;;25.30;;
35847;SDS011;22332;51.954;20.118;2022-11-20T03:46:04;58.40;;;26.70;;
35847;SDS011;22332;51.954;20.118;2022-11-20T03:49:07;56.20;;;23.20;;
35847;SDS011;22332;51.954;20.118;2022-11-20T03:52:10;53.40;;;23.40;;
35847;SDS011;22332;51.954;20.118;2022-11-20T03:55:13;49.90;;;21.50;;
35847;SDS011;22332;51.954;20.118;2022-11-20T03:58:15;52.20;;;24.10;;
35847;SDS011;22332;51.954;20.118;2022-11-20T04:01:19;59.30;;;26.00;;
35847;SDS011;22332;51.954;20.118;2022-11-20T04:04:24;60.40;;;26.60;;
35847;SDS011;22332;51.954;20.118;2022-11-20T04:07:26;58.20;;;26.10;;
35847;SDS011;22332;51.954;20.118;2022-11-20T04:10:29;56.60;;;25.80;;
35847;SDS011;22332;51.954;20.118;2022-11-20T04:13:32;59.90;;;26.60;;
35847;SDS011;22332;51.954;20.118;2022-11-20T04:16:35;62.40;;;27.60;;
35847;SDS011;22332;51.954;20.118;2022-11-20T04:19:38;60.70;;;26.60;;
35847;SDS011;22332;51.954;20.118;2022-11-20T04:22:40;63.20;;;28.00;;
35847;SDS011;22332;51.954;20.118;2022-11-20T04:25:43;62.30;;;27.60;;
35847;SDS011;22332;51.954;20.118;2022-11-20T04:28:46;61.50;;;27.80;;
35847;SDS011;22332;51.954;20.118;2022-11-20T04:31:49;66.80;;;29.30;;
35847;SDS011;22332;51.954;20.118;2022-11-20T04:34:51;64.60;;;28.90;;
35847;SDS011;22332;51.954;20.118;2022-11-20T04:37:54;62.60;;;28.30;;
35847;SDS011;22332;51.954;20.118;2022-11-20T04:40:57;66.50;;;27.60;;
35847;SDS011;22332;51.954;20.118;2022-11-20T04:44:01;63.90;;;27.90;;
35847;SDS011;22332;51.954;20.118;2022-11-20T04:47:05;61.50;;;27.20;;
35847;SDS011;22332;51.954;20.118;2022-11-20T04:50:08;59.40;;;27.20;;
35847;SDS011;22332;51.954;20.118;2022-11-20T04:53:11;61.60;;;27.70;;
35847;SDS011;22332;51.954;20.118;2022-11-20T04:56:14;58.30;;;27.00;;
35847;SDS011;22332;51.954;20.118;2022-11-20T04:59:17;62.00;;;28.00;;
35847;SDS011;22332;51.954;20.118;2022-11-20T05:02:20;64.20;;;28.20;;
35847;SDS011;22332;51.954;20.118;2022-11-20T05:05:24;60.20;;;27.00;;
35847;SDS011;22332;51.954;20.118;2022-11-20T05:08:28;57.00;;;26.80;;
35847;SDS011;22332;51.954;20.118;2022-11-20T05:11:31;58.00;;;25.80;;
35847;SDS011;22332;51.954;20.118;2022-11-20T05:14:37;59.70;;;27.00;;
35847;SDS011;22332;51.954;20.118;2022-11-20T05:17:39;56.80;;;26.10;;
35847;SDS011;22332;51.954;20.118;2022-11-20T05:20:42;53.20;;;24.40;;
35847;SDS011;22332;51.954;20.118;2022-11-20T05:23:45;56.90;;;25.60;;
35847;SDS011;22332;51.954;20.118;2022-11-20T05:26:48;57.80;;;26.30;;
35847;SDS011;22332;51.954;20.118;2022-11-20T05:29:51;52.20;;;23.80;;
35847;SDS011;22332;51.954;20.118;2022-11-20T05:32:53;49.10;;;23.00;;
35847;SDS011;22332;51.954;20.118;2022-11-20T05:35:58;57.90;;;23.50;;
35847;SDS011;22332;51.954;20.118;2022-11-20T05:39:01;60.30;;;24.40;;
35847;SDS011;22332;51.954;20.118;2022-11-20T05:42:04;54.90;;;25.80;;
35847;SDS011;22332;51.954;20.118;2022-11-20T05:45:25;59.20;;;26.00;;
35847;SDS011;22332;51.954;20.118;2022-11-20T05:48:28;61.70;;;26.30;;
35847;SDS011;22332;51.954;20.118;2022-11-20T05:51:31;58.40;;;26.00;;
35847;SDS011;22332;51.954;20.118;2022-11-20T05:54:35;60.00;;;26.60;;
35847;SDS011;22332;51.954;20.118;2022-11-20T05:57:37;110.40;;;47.70;;
35847;SDS011;22332;51.954;20.118;2022-11-20T06:00:40;105.40;;;45.80;;
35847;SDS011;22332;51.954;20.118;2022-11-20T06:03:43;71.80;;;32.50;;
35847;SDS011;22332;51.954;20.118;2022-11-20T06:06:49;60.10;;;27.10;;
35847;SDS011;22332;51.954;20.118;2022-11-20T06:09:57;56.40;;;26.00;;
35847;SDS011;22332;51.954;20.118;2022-11-20T06:13:03;58.10;;;26.30;;
35847;SDS011;22332;51.954;20.118;2022-11-20T06:16:06;58.10;;;25.60;;
35847;SDS011;22332;51.954;20.118;2022-11-20T06:19:09;63.40;;;27.30;;
35847;SDS011;22332;51.954;20.118;2022-11-20T06:22:13;60.80;;;26.60;;
35847;SDS011;22332;51.954;20.118;2022-11-20T06:25:16;63.00;;;29.20;;
35847;SDS011;22332;51.954;20.118;2022-11-20T06:28:18;81.40;;;34.40;;
35847;SDS011;22332;51.954;20.118;2022-11-20T06:31:22;96.40;;;38.40;;
35847;SDS011;22332;51.954;20.118;2022-11-20T06:34:26;72.60;;;31.30;;
35847;SDS011;22332;51.954;20.118;2022-11-20T06:37:29;63.80;;;28.20;;
35847;SDS011;22332;51.954;20.118;2022-11-20T06:40:32;64.00;;;28.70;;
35847;SDS011;22332;51.954;20.118;2022-11-20T06:43:34;59.50;;;28.00;;
35847;SDS011;22332;51.954;20.118;2022-11-20T06:46:37;56.60;;;27.60;;
35847;SDS011;22332;51.954;20.118;2022-11-20T06:49:42;55.60;;;26.00;;
35847;SDS011;22332;51.954;20.118;2022-11-20T06:52:50;57.60;;;25.20;;
35847;SDS011;22332;51.954;20.118;2022-11-20T06:55:55;52.80;;;23.90;;
35847;SDS011;22332;51.954;20.118;2022-11-20T06:58:59;54.80;;;24.40;;
35847;SDS011;22332;51.954;20.118;2022-11-20T07:02:08;61.80;;;27.50;;
35847;SDS011;22332;51.954;20.118;2022-11-20T07:05:12;63.80;;;27.90;;
35847;SDS011;22332;51.954;20.118;2022-11-20T07:08:15;62.70;;;27.80;;
35847;SDS011;22332;51.954;20.118;2022-11-20T07:11:18;63.70;;;28.80;;
35847;SDS011;22332;51.954;20.118;2022-11-20T07:14:20;63.40;;;28.40;;
35847;SDS011;22332;51.954;20.118;2022-11-20T07:17:23;68.10;;;29.70;;
35847;SDS011;22332;51.954;20.118;2022-11-20T07:20:26;63.90;;;28.50;;
35847;SDS011;22332;51.954;20.118;2022-11-20T07:23:29;65.40;;;30.40;;
35847;SDS011;22332;51.954;20.118;2022-11-20T07:26:32;61.10;;;29.00;;
35847;SDS011;22332;51.954;20.118;2022-11-20T07:29:34;60.70;;;29.00;;
35847;SDS011;22332;51.954;20.118;2022-11-20T07:32:37;66.50;;;29.80;;
35847;SDS011;22332;51.954;20.118;2022-11-20T07:35:40;67.50;;;31.50;;
35847;SDS011;22332;51.954;20.118;2022-11-20T07:38:43;65.80;;;31.10;;
35847;SDS011;22332;51.954;20.118;2022-11-20T07:41:45;62.70;;;30.50;;
35847;SDS011;22332;51.954;20.118;2022-11-20T07:44:48;67.00;;;30.80;;
35847;SDS011;22332;51.954;20.118;2022-11-20T07:47:51;65.20;;;31.30;;
35847;SDS011;22332;51.954;20.118;2022-11-20T07:50:54;61.80;;;30.50;;
35847;SDS011;22332;51.954;20.118;2022-11-20T07:53:57;67.10;;;32.20;;
35847;SDS011;22332;51.954;20.118;2022-11-20T07:56:59;61.80;;;31.00;;
35847;SDS011;22332;51.954;20.118;2022-11-20T08:00:02;64.80;;;31.50;;
35847;SDS011;22332;51.954;20.118;2022-11-20T08:03:13;62.20;;;31.50;;
35847;SDS011;22332;51.954;20.118;2022-11-20T08:06:16;58.40;;;30.40;;
35847;SDS011;22332;51.954;20.118;2022-11-20T08:09:19;60.30;;;31.00;;
35847;SDS011;22332;51.954;20.118;2022-11-20T08:12:22;57.90;;;30.90;;
35847;SDS011;22332;51.954;20.118;2022-11-20T08:15:47;60.50;;;30.70;;
35847;SDS011;22332;51.954;20.118;2022-11-20T08:18:51;59.70;;;31.20;;
35847;SDS011;22332;51.954;20.118;2022-11-20T08:21:57;56.20;;;30.20;;
35847;SDS011;22332;51.954;20.118;2022-11-20T08:25:00;58.30;;;31.20;;
35847;SDS011;22332;51.954;20.118;2022-11-20T08:28:03;59.50;;;30.20;;
35847;SDS011;22332;51.954;20.118;2022-11-20T08:31:08;60.90;;;31.40;;
35847;SDS011;22332;51.954;20.118;2022-11-20T08:34:11;64.10;;;32.30;;
35847;SDS011;22332;51.954;20.118;2022-11-20T08:37:14;61.40;;;32.70;;
35847;SDS011;22332;51.954;20.118;2022-11-20T08:40:17;60.90;;;31.70;;
35847;SDS011;22332;51.954;20.118;2022-11-20T08:43:19;60.80;;;31.60;;
35847;SDS011;22332;51.954;20.118;2022-11-20T08:46:22;55.40;;;30.30;;
35847;SDS011;22332;51.954;20.118;2022-11-20T08:49:25;58.10;;;30.60;;
35847;SDS011;22332;51.954;20.118;2022-11-20T08:52:28;55.50;;;29.00;;
35847;SDS011;22332;51.954;20.118;2022-11-20T08:55:31;52.30;;;28.50;;
35847;SDS011;22332;51.954;20.118;2022-11-20T08:58:36;50.90;;;28.30;;
35847;SDS011;22332;51.954;20.118;2022-11-20T09:01:39;52.20;;;28.90;;
35847;SDS011;22332;51.954;20.118;2022-11-20T09:04:42;52.40;;;28.20;;
35847;SDS011;22332;51.954;20.118;2022-11-20T09:07:45;52.40;;;28.50;;
35847;SDS011;22332;51.954;20.118;2022-11-20T09:10:51;50.70;;;28.10;;
35847;SDS011;22332;51.954;20.118;2022-11-20T09:13:54;50.60;;;28.20;;
35847;SDS011;22332;51.954;20.118;2022-11-20T09:16:56;54.30;;;27.80;;
35847;SDS011;22332;51.954;20.118;2022-11-20T09:20:00;55.50;;;30.70;;
35847;SDS011;22332;51.954;20.118;2022-11-20T09:23:02;53.30;;;29.60;;
35847;SDS011;22332;51.954;20.118;2022-11-20T09:26:06;51.80;;;28.50;;
35847;SDS011;22332;51.954;20.118;2022-11-20T09:29:12;52.90;;;28.60;;
35847;SDS011;22332;51.954;20.118;2022-11-20T09:32:15;54.20;;;28.60;;
35847;SDS011;22332;51.954;20.118;2022-11-20T09:35:17;56.30;;;29.70;;
35847;SDS011;22332;51.954;20.118;2022-11-20T09:38:20;54.00;;;29.00;;
35847;SDS011;22332;51.954;20.118;2022-11-20T09:41:36;55.20;;;30.20;;
35847;SDS011;22332;51.954;20.118;2022-11-20T09:45:01;58.60;;;29.10;;
35847;SDS011;22332;51.954;20.118;2022-11-20T09:48:20;60.70;;;30.10;;
35847;SDS011;22332;51.954;20.118;2022-11-20T09:51:36;57.20;;;31.00;;
35847;SDS011;22332;51.954;20.118;2022-11-20T09:54:47;55.90;;;29.30;;
35847;SDS011;22332;51.954;20.118;2022-11-20T09:57:51;52.60;;;27.70;;
35847;SDS011;22332;51.954;20.118;2022-11-20T10:00:55;51.80;;;28.30;;
35847;SDS011;22332;51.954;20.118;2022-11-20T10:04:12;51.50;;;27.80;;
35847;SDS011;22332;51.954;20.118;2022-11-20T10:07:19;52.30;;;27.70;;
35847;SDS011;22332;51.954;20.118;2022-11-20T10:10:31;50.00;;;27.50;;
35847;SDS011;22332;51.954;20.118;2022-11-20T10:13:39;53.20;;;27.70;;
35847;SDS011;22332;51.954;20.118;2022-11-20T10:16:59;56.30;;;29.50;;
35847;SDS011;22332;51.954;20.118;2022-11-20T10:20:16;51.00;;;27.70;;
35847;SDS011;22332;51.954;20.118;2022-11-20T10:26:38;48.10;;;25.50;;
35847;SDS011;22332;51.954;20.118;2022-11-20T10:30:02;49.10;;;27.20;;
35847;SDS011;22332;51.954;20.118;2022-11-20T10:33:13;53.60;;;29.20;;
35847;SDS011;22332;51.954;20.118;2022-11-20T10:36:20;48.80;;;27.80;;
35847;SDS011;22332;51.954;20.118;2022-11-20T10:39:30;56.10;;;28.70;;
35847;SDS011;22332;51.954;20.118;2022-11-20T10:42:37;53.60;;;28.80;;
35847;SDS011;22332;51.954;20.118;2022-11-20T10:45:47;53.50;;;29.20;;
35847;SDS011;22332;51.954;20.118;2022-11-20T10:48:56;51.30;;;28.20;;
35847;SDS011;22332;51.954;20.118;2022-11-20T10:52:02;55.50;;;27.90;;
35847;SDS011;22332;51.954;20.118;2022-11-20T10:55:16;53.50;;;27.30;;
35847;SDS011;22332;51.954;20.118;2022-11-20T10:58:30;56.70;;;29.40;;
35847;SDS011;22332;51.954;20.118;2022-11-20T11:01:40;53.00;;;28.30;;
35847;SDS011;22332;51.954;20.118;2022-11-20T11:04:45;52.20;;;28.20;;
35847;SDS011;22332;51.954;20.118;2022-11-20T11:07:49;48.40;;;27.80;;
35847;SDS011;22332;51.954;20.118;2022-11-20T11:10:55;55.40;;;30.00;;
35847;SDS011;22332;51.954;20.118;2022-11-20T11:14:06;46.00;;;25.80;;
35847;SDS011;22332;51.954;20.118;2022-11-20T11:17:18;43.00;;;24.00;;
35847;SDS011;22332;51.954;20.118;2022-11-20T11:20:25;39.80;;;22.70;;
35847;SDS011;22332;51.954;20.118;2022-11-20T11:23:31;39.80;;;22.60;;
35847;SDS011;22332;51.954;20.118;2022-11-20T11:26:36;40.50;;;22.70;;
35847;SDS011;22332;51.954;20.118;2022-11-20T11:29:38;44.80;;;23.50;;
35847;SDS011;22332;51.954;20.118;2022-11-20T11:32:41;45.20;;;24.90;;
35847;SDS011;22332;51.954;20.118;2022-11-20T11:35:44;48.40;;;25.20;;
35847;SDS011;22332;51.954;20.118;2022-11-20T11:38:50;47.00;;;25.30;;
35847;SDS011;22332;51.954;20.118;2022-11-20T11:41:54;46.10;;;25.40;;
35847;SDS011;22332;51.954;20.118;2022-11-20T11:44:59;42.80;;;22.90;;
35847;SDS011;22332;51.954;20.118;2022-11-20T11:48:08;42.80;;;23.20;;
35847;SDS011;22332;51.954;20.118;2022-11-20T11:51:11;41.00;;;23.30;;
35847;SDS011;22332;51.954;20.118;2022-11-20T11:54:23;42.60;;;23.10;;
35847;SDS011;22332;51.954;20.118;2022-11-20T11:57:34;41.80;;;22.50;;
35847;SDS011;22332;51.954;20.118;2022-11-20T12:00:47;40.10;;;22.70;;
35847;SDS011;22332;51.954;20.118;2022-11-20T12:04:05;38.60;;;21.30;;
35847;SDS011;22332;51.954;20.118;2022-11-20T12:07:20;40.10;;;21.80;;
35847;SDS011;22332;51.954;20.118;2022-11-20T12:10:36;44.30;;;25.00;;
35847;SDS011;22332;51.954;20.118;2022-11-20T12:13:47;45.90;;;25.50;;
35847;SDS011;22332;51.954;20.118;2022-11-20T12:16:54;45.90;;;25.90;;
35847;SDS011;22332;51.954;20.118;2022-11-20T12:19:58;45.10;;;24.90;;
35847;SDS011;22332;51.954;20.118;2022-11-20T12:23:04;43.60;;;24.50;;
35847;SDS011;22332;51.954;20.118;2022-11-20T12:26:13;41.60;;;23.80;;
35847;SDS011;22332;51.954;20.118;2022-11-20T12:29:29;47.30;;;25.60;;
35847;SDS011;22332;51.954;20.118;2022-11-20T12:36:21;45.70;;;26.50;;
35847;SDS011;22332;51.954;20.118;2022-11-20T12:39:35;51.00;;;26.70;;
35847;SDS011;22332;51.954;20.118;2022-11-20T12:42:49;46.80;;;25.10;;
35847;SDS011;22332;51.954;20.118;2022-11-20T12:46:20;47.30;;;26.40;;
35847;SDS011;22332;51.954;20.118;2022-11-20T12:49:33;46.90;;;26.60;;
35847;SDS011;22332;51.954;20.118;2022-11-20T12:52:45;72.50;;;39.30;;
35847;SDS011;22332;51.954;20.118;2022-11-20T12:55:56;121.50;;;54.80;;
35847;SDS011;22332;51.954;20.118;2022-11-20T12:59:08;250.20;;;89.40;;
35847;SDS011;22332;51.954;20.118;2022-11-20T13:02:25;92.00;;;42.10;;
35847;SDS011;22332;51.954;20.118;2022-11-20T13:05:34;51.30;;;26.90;;
35847;SDS011;22332;51.954;20.118;2022-11-20T13:08:47;154.50;;;75.30;;
35847;SDS011;22332;51.954;20.118;2022-11-20T13:11:57;104.50;;;50.90;;
35847;SDS011;22332;51.954;20.118;2022-11-20T13:15:08;93.40;;;48.50;;
35847;SDS011;22332;51.954;20.118;2022-11-20T13:18:24;77.40;;;38.80;;
35847;SDS011;22332;51.954;20.118;2022-11-20T13:21:36;63.00;;;31.50;;
35847;SDS011;22332;51.954;20.118;2022-11-20T13:24:49;49.50;;;27.70;;
35847;SDS011;22332;51.954;20.118;2022-11-20T13:27:53;85.30;;;43.70;;
35847;SDS011;22332;51.954;20.118;2022-11-20T13:30:57;85.20;;;41.90;;
35847;SDS011;22332;51.954;20.118;2022-11-20T13:34:01;130.80;;;62.80;;
35847;SDS011;22332;51.954;20.118;2022-11-20T13:40:29;142.80;;;71.80;;
35847;SDS011;22332;51.954;20.118;2022-11-20T13:43:35;104.20;;;46.70;;
35847;SDS011;22332;51.954;20.118;2022-11-20T13:46:42;95.40;;;44.40;;
35847;SDS011;22332;51.954;20.118;2022-11-20T13:49:47;87.70;;;42.20;;
35847;SDS011;22332;51.954;20.118;2022-11-20T13:52:51;60.70;;;30.70;;
35847;SDS011;22332;51.954;20.118;2022-11-20T13:56:05;69.20;;;35.10;;
35847;SDS011;22332;51.954;20.118;2022-11-20T13:59:21;67.00;;;33.50;;
35847;SDS011;22332;51.954;20.118;2022-11-20T14:02:37;57.80;;;31.40;;
35847;SDS011;22332;51.954;20.118;2022-11-20T14:05:45;58.50;;;31.20;;
35847;SDS011;22332;51.954;20.118;2022-11-20T14:08:51;62.00;;;34.20;;
35847;SDS011;22332;51.954;20.118;2022-11-20T14:11:54;57.60;;;31.50;;
35847;SDS011;22332;51.954;20.118;2022-11-20T14:14:58;52.90;;;28.00;;
35847;SDS011;22332;51.954;20.118;2022-11-20T14:18:10;47.70;;;26.80;;
35847;SDS011;22332;51.954;20.118;2022-11-20T14:21:21;51.00;;;27.80;;
35847;SDS011;22332;51.954;20.118;2022-11-20T14:24:25;48.90;;;27.30;;
35847;SDS011;22332;51.954;20.118;2022-11-20T14:27:28;44.50;;;25.00;;
35847;SDS011;22332;51.954;20.118;2022-11-20T14:30:37;46.70;;;25.80;;
35847;SDS011;22332;51.954;20.118;2022-11-20T14:33:44;54.30;;;29.60;;
35847;SDS011;22332;51.954;20.118;2022-11-20T14:36:48;55.80;;;30.80;;
35847;SDS011;22332;51.954;20.118;2022-11-20T14:39:54;51.50;;;27.90;;
35847;SDS011;22332;51.954;20.118;2022-11-20T14:42:58;53.30;;;28.40;;
35847;SDS011;22332;51.954;20.118;2022-11-20T14:46:02;45.60;;;24.90;;
35847;SDS011;22332;51.954;20.118;2022-11-20T14:49:08;47.80;;;24.50;;
35847;SDS011;22332;51.954;20.118;2022-11-20T14:52:13;44.40;;;24.00;;
35847;SDS011;22332;51.954;20.118;2022-11-20T14:55:25;53.10;;;28.80;;
35847;SDS011;22332;51.954;20.118;2022-11-20T14:58:30;66.80;;;33.40;;
35847;SDS011;22332;51.954;20.118;2022-11-20T15:01:34;86.90;;;41.70;;
35847;SDS011;22332;51.954;20.118;2022-11-20T15:04:44;172.50;;;81.40;;
35847;SDS011;22332;51.954;20.118;2022-11-20T15:07:49;122.90;;;61.20;;
35847;SDS011;22332;51.954;20.118;2022-11-20T15:10:53;112.20;;;57.60;;
35847;SDS011;22332;51.954;20.118;2022-11-20T15:13:57;95.40;;;49.20;;
35847;SDS011;22332;51.954;20.118;2022-11-20T15:17:04;119.70;;;61.40;;
35847;SDS011;22332;51.954;20.118;2022-11-20T15:20:11;79.10;;;40.20;;
35847;SDS011;22332;51.954;20.118;2022-11-20T15:23:17;69.60;;;33.80;;
35847;SDS011;22332;51.954;20.118;2022-11-20T15:26:22;64.00;;;32.40;;
35847;SDS011;22332;51.954;20.118;2022-11-20T15:29:27;69.70;;;34.60;;
35847;SDS011;22332;51.954;20.118;2022-11-20T15:32:30;71.80;;;34.20;;
35847;SDS011;22332;51.954;20.118;2022-11-20T15:35:33;76.50;;;35.20;;
35847;SDS011;22332;51.954;20.118;2022-11-20T15:38:36;80.10;;;39.10;;
35847;SDS011;22332;51.954;20.118;2022-11-20T15:41:38;73.40;;;34.10;;
35847;SDS011;22332;51.954;20.118;2022-11-20T15:44:41;67.20;;;32.90;;
35847;SDS011;22332;51.954;20.118;2022-11-20T15:47:44;69.50;;;35.10;;
35847;SDS011;22332;51.954;20.118;2022-11-20T15:50:49;77.70;;;37.70;;
35847;SDS011;22332;51.954;20.118;2022-11-20T15:53:55;74.70;;;35.40;;
35847;SDS011;22332;51.954;20.118;2022-11-20T15:56:58;75.30;;;35.90;;
35847;SDS011;22332;51.954;20.118;2022-11-20T16:00:02;77.30;;;36.10;;
35847;SDS011;22332;51.954;20.118;2022-11-20T16:03:12;76.50;;;34.70;;
35847;SDS011;22332;51.954;20.118;2022-11-20T16:06:16;75.80;;;35.20;;
35847;SDS011;22332;51.954;20.118;2022-11-20T16:09:19;80.00;;;34.20;;
35847;SDS011;22332;51.954;20.118;2022-11-20T16:12:22;74.60;;;33.90;;
35847;SDS011;22332;51.954;20.118;2022-11-20T16:15:39;75.20;;;33.40;;
35847;SDS011;22332;51.954;20.118;2022-11-20T16:18:48;86.70;;;38.70;;
35847;SDS011;22332;51.954;20.118;2022-11-20T16:21:51;79.90;;;36.10;;
35847;SDS011;22332;51.954;20.118;2022-11-20T16:24:54;79.00;;;36.20;;
35847;SDS011;22332;51.954;20.118;2022-11-20T16:27:56;89.20;;;38.30;;
35847;SDS011;22332;51.954;20.118;2022-11-20T16:31:07;86.10;;;37.70;;
35847;SDS011;22332;51.954;20.118;2022-11-20T16:34:11;91.40;;;42.70;;
35847;SDS011;22332;51.954;20.118;2022-11-20T16:37:14;90.60;;;39.20;;
35847;SDS011;22332;51.954;20.118;2022-11-20T16:40:16;86.80;;;38.00;;
35847;SDS011;22332;51.954;20.118;2022-11-20T16:43:19;93.90;;;39.30;;
35847;SDS011;22332;51.954;20.118;2022-11-20T16:46:22;86.40;;;38.40;;
35847;SDS011;22332;51.954;20.118;2022-11-20T16:49:26;84.40;;;36.70;;
35847;SDS011;22332;51.954;20.118;2022-11-20T16:52:29;85.40;;;37.50;;
35847;SDS011;22332;51.954;20.118;2022-11-20T16:55:32;93.40;;;41.80;;
35847;SDS011;22332;51.954;20.118;2022-11-20T16:58:35;93.00;;;40.30;;
35847;SDS011;22332;51.954;20.118;2022-11-20T17:01:38;95.80;;;41.00;;
35847;SDS011;22332;51.954;20.118;2022-11-20T17:04:43;87.90;;;39.70;;
35847;SDS011;22332;51.954;20.118;2022-11-20T17:07:45;93.70;;;40.30;;
35847;SDS011;22332;51.954;20.118;2022-11-20T17:10:48;88.00;;;38.10;;
35847;SDS011;22332;51.954;20.118;2022-11-20T17:13:51;94.00;;;39.90;;
35847;SDS011;22332;51.954;20.118;2022-11-20T17:16:55;91.60;;;39.20;;
35847;SDS011;22332;51.954;20.118;2022-11-20T17:19:57;82.40;;;36.40;;
35847;SDS011;22332;51.954;20.118;2022-11-20T17:23:00;94.40;;;39.60;;
35847;SDS011;22332;51.954;20.118;2022-11-20T17:26:04;93.30;;;41.80;;
35847;SDS011;22332;51.954;20.118;2022-11-20T17:29:09;97.70;;;44.30;;
35847;SDS011;22332;51.954;20.118;2022-11-20T17:32:13;101.20;;;41.60;;
35847;SDS011;22332;51.954;20.118;2022-11-20T17:35:16;95.30;;;40.70;;
35847;SDS011;22332;51.954;20.118;2022-11-20T17:38:22;97.20;;;41.20;;
35847;SDS011;22332;51.954;20.118;2022-11-20T17:41:30;87.90;;;38.60;;
35847;SDS011;22332;51.954;20.118;2022-11-20T17:44:34;87.10;;;36.80;;
35847;SDS011;22332;51.954;20.118;2022-11-20T17:47:37;95.80;;;39.70;;
35847;SDS011;22332;51.954;20.118;2022-11-20T17:50:39;87.70;;;38.40;;
35847;SDS011;22332;51.954;20.118;2022-11-20T17:53:43;90.70;;;38.70;;
35847;SDS011;22332;51.954;20.118;2022-11-20T17:56:47;85.90;;;37.70;;
35847;SDS011;22332;51.954;20.118;2022-11-20T18:00:10;86.90;;;36.80;;